Pickleville, Utah
Current Conditions -  °F | °C
As of 8:51 AM on Monday 24 Nov 2014 (Local Time) from KLGU Reporting Station
Scattered Clouds Scattered Clouds  
Wind Chill: 25°   Ceiling: Unl
Heat Index: 30°   Visibility: 10mi
Dew Point: 24°   Wind: 5mph
Humidity: 79%   Direction: 280°W
Pressure: 30.28"   Gusts: NA
Location:  41.9408°N, 111.433°W
Report Text: KLGU 241551Z AUTO 28004KT 10SM SCT038 M01/M04 A3028 RMK AO2 SLP268 T10111044
Loading
Personal Weather Stations






























Interactive Weather Map New forecast layout! Learn more

10-Day Weather Forecast

Advertisements
Track Severe Weather on mobile